Time;durP1;ratioP1;P1;durP2;ratioP2;P2;SDS_P1;SDS_P2;PMS_P1;PMS_P2;Temp;Humidity;BMP_temperature;BMP_pressure;BME280_temperature;BME280_humidity;BME280_pressure;Samples;Min_cycle;Max_cycle;Signal;HPM_P1;HPM_P2
2023/01/27 00:00:17;;;;;;;31.17;15.55;;;;;;;0.88;100.00;100829.22;5035278;28;20214;-73
2023/01/27 00:02:45;;;;;;;29.90;15.50;;;;;;;0.92;100.00;100838.97;5035614;28;20307;-72
2023/01/27 00:05:13;;;;;;;32.33;15.52;;;;;;;0.99;100.00;100845.16;5037174;28;20239;-71
2023/01/27 00:07:44;;;;;;;36.28;16.60;;;;;;;1.00;100.00;100839.00;5032867;28;20210;-73
2023/01/27 00:10:14;;;;;;;32.13;16.90;;;;;;;1.02;100.00;100826.63;5034015;28;20570;-72
2023/01/27 00:15:25;;;;;;;33.78;16.05;;;;;;;1.08;100.00;100826.59;5038204;28;20241;-74
2023/01/27 00:17:52;;;;;;;30.50;15.77;;;;;;;1.07;100.00;100823.97;5038105;28;20642;-73
2023/01/27 00:24:34;;;;;;;28.33;14.60;;;;;;;1.14;100.00;100817.78;5035953;28;20205;-76
2023/01/27 00:25:59;;;;;;;30.88;14.95;;;;;;;1.16;100.00;100813.34;5034374;28;20186;-74
2023/01/27 00:28:29;;;;;;;30.83;15.27;;;;;;;1.19;100.00;100814.22;5033044;28;20213;-72
2023/01/27 00:30:55;;;;;;;29.35;14.35;;;;;;;1.19;100.00;100816.00;5033653;28;20209;-73
2023/01/27 00:33:24;;;;;;;31.70;14.68;;;;;;;1.22;100.00;100808.03;5055894;22;20226;-75
2023/01/27 00:35:55;;;;;;;26.60;15.18;;;;;;;1.21;100.00;100811.56;5065316;28;20190;-76
2023/01/27 00:38:23;;;;;;;28.88;15.07;;;;;;;1.22;100.00;100800.06;5055485;28;20199;-76
2023/01/27 00:43:30;;;;;;;32.90;16.67;;;;;;;1.21;100.00;100804.50;5056763;28;20304;-76
2023/01/27 00:45:57;;;;;;;26.02;14.48;;;;;;;1.18;100.00;100809.81;5058071;28;20202;-76
2023/01/27 00:48:23;;;;;;;26.73;15.15;;;;;;;1.18;100.00;100808.94;5056444;28;20207;-76
2023/01/27 00:50:50;;;;;;;29.95;16.13;;;;;;;1.13;100.00;100815.97;5056432;28;20268;-75
2023/01/27 00:53:16;;;;;;;25.88;15.63;;;;;;;1.13;100.00;100814.25;5055278;28;20502;-76
2023/01/27 00:55:46;;;;;;;32.35;14.68;;;;;;;1.24;100.00;100814.22;5055428;28;20743;-75
2023/01/27 00:58:12;;;;;;;29.77;16.17;;;;;;;1.27;100.00;100803.63;5054771;28;20227;-75
2023/01/27 01:00:39;;;;;;;23.73;14.43;;;;;;;1.25;100.00;100811.56;5055521;28;20583;-76
2023/01/27 01:03:06;;;;;;;35.03;16.80;;;;;;;1.25;100.00;100813.34;5054979;28;20647;-75
2023/01/27 01:05:32;;;;;;;29.98;15.43;;;;;;;1.27;100.00;100822.19;5054915;28;20202;-74
2023/01/27 01:07:59;;;;;;;28.38;14.07;;;;;;;1.28;100.00;100817.75;5054843;28;20266;-75
2023/01/27 01:10:26;;;;;;;29.17;15.15;;;;;;;1.34;100.00;100823.06;5069086;28;20239;-74
2023/01/27 01:12:54;;;;;;;24.02;12.70;;;;;;;1.35;100.00;100825.69;5064470;28;20235;-74
2023/01/27 01:15:20;;;;;;;31.75;15.48;;;;;;;1.32;100.00;100823.06;5058952;28;20207;-74
2023/01/27 01:17:47;;;;;;;28.42;14.30;;;;;;;1.38;100.00;100833.69;5058023;28;20228;-74
2023/01/27 01:20:13;;;;;;;27.90;14.40;;;;;;;1.41;100.00;100840.75;5058780;28;20210;-75
2023/01/27 01:22:40;;;;;;;25.65;14.30;;;;;;;1.43;100.00;100839.88;5053797;28;20228;-74
2023/01/27 01:25:08;;;;;;;23.58;13.75;;;;;;;1.46;100.00;100839.84;5055416;28;20217;-75
2023/01/27 01:27:34;;;;;;;23.98;13.32;;;;;;;1.49;100.00;100838.97;5054986;28;20198;-76
2023/01/27 01:30:02;;;;;;;23.95;13.52;;;;;;;1.48;100.00;100834.56;5056169;28;20275;-75
2023/01/27 01:32:29;;;;;;;24.90;13.85;;;;;;;1.52;100.00;100836.31;5055433;28;20755;-75
2023/01/27 01:34:55;;;;;;;26.27;13.23;;;;;;;1.51;100.00;100838.97;5057828;28;20215;-74
2023/01/27 01:37:22;;;;;;;22.48;13.07;;;;;;;1.51;100.00;100842.50;5059996;28;20230;-75
2023/01/27 01:39:48;;;;;;;25.60;13.60;;;;;;;1.52;100.00;100835.44;5059578;28;20202;-76
2023/01/27 01:42:15;;;;;;;22.83;13.40;;;;;;;1.46;100.00;100831.88;5059473;28;20646;-75
2023/01/27 01:44:44;;;;;;;21.23;12.98;;;;;;;1.51;100.00;100826.56;5060468;28;20203;-75
2023/01/27 01:47:15;;;;;;;21.33;11.30;;;;;;;1.58;100.00;100833.66;5059880;28;20211;-76
2023/01/27 01:49:45;;;;;;;20.27;11.20;;;;;;;1.62;100.00;100829.22;5058460;28;20209;-75
2023/01/27 01:52:18;;;;;;;18.55;11.25;;;;;;;1.55;100.00;100833.66;5060038;28;20209;-75
2023/01/27 01:54:49;;;;;;;17.60;10.48;;;;;;;1.64;100.00;100838.94;5057938;28;20212;-76
2023/01/27 01:57:20;;;;;;;14.77;8.77;;;;;;;1.74;100.00;100833.59;5058216;28;20198;-75
2023/01/27 01:59:51;;;;;;;19.75;9.60;;;;;;;1.72;100.00;100833.63;5056642;28;20667;-74
2023/01/27 02:02:23;;;;;;;17.33;9.57;;;;;;;1.72;100.00;100823.00;5058080;28;20638;-74
2023/01/27 02:04:54;;;;;;;15.25;9.70;;;;;;;1.71;100.00;100821.22;5060783;28;20187;-75
2023/01/27 02:07:26;;;;;;;15.13;8.80;;;;;;;1.80;100.00;100818.53;5062862;28;20212;-75
2023/01/27 02:09:54;;;;;;;15.02;8.95;;;;;;;1.80;100.00;100823.84;5062374;28;20773;-74
2023/01/27 02:12:21;;;;;;;15.05;8.75;;;;;;;1.77;100.00;100826.53;5061302;28;20297;-75
2023/01/27 02:14:47;;;;;;;16.30;8.82;;;;;;;1.73;100.00;100816.81;5061252;28;20213;-75
2023/01/27 02:17:15;;;;;;;12.55;8.00;;;;;;;1.80;100.00;100822.97;5062935;28;20233;-74
2023/01/27 02:19:55;;;;;;;17.13;8.98;;;;;;;1.85;100.00;100816.78;5065166;28;20315;-74
2023/01/27 02:22:28;;;;;;;12.23;8.02;;;;;;;1.89;100.00;100817.63;5065012;28;20244;-75
2023/01/27 02:25:03;;;;;;;12.80;8.07;;;;;;;1.93;100.00;100818.53;5062301;28;20588;-74
2023/01/27 02:27:31;;;;;;;12.93;8.10;;;;;;;1.95;100.00;100814.97;5061407;28;20270;-74
2023/01/27 02:29:58;;;;;;;15.23;9.05;;;;;;;1.93;100.00;100814.09;5060479;28;20191;-76
2023/01/27 02:32:26;;;;;;;15.98;8.70;;;;;;;1.91;100.00;100812.34;5060331;28;20207;-76
2023/01/27 02:34:55;;;;;;;13.85;8.90;;;;;;;1.96;100.00;100813.19;5059702;28;20208;-77
2023/01/27 02:37:24;;;;;;;11.82;7.80;;;;;;;1.93;100.00;100813.22;5059757;28;20211;-75
2023/01/27 02:39:52;;;;;;;15.80;8.25;;;;;;;1.91;100.00;100815.88;5056874;28;20260;-74
2023/01/27 02:42:19;;;;;;;14.05;8.43;;;;;;;1.93;100.00;100822.06;5057528;28;20294;-75
2023/01/27 02:44:47;;;;;;;14.30;8.65;;;;;;;1.93;100.00;100819.41;5057627;28;20200;-75
2023/01/27 02:47:14;;;;;;;14.82;9.90;;;;;;;1.95;100.00;100824.72;5057644;28;20209;-74
2023/01/27 02:49:40;;;;;;;15.15;10.27;;;;;;;2.00;100.00;100833.56;5056091;28;20579;-75
2023/01/27 02:52:07;;;;;;;13.15;8.65;;;;;;;1.99;100.00;100827.38;5058959;28;20207;-76
2023/01/27 02:54:33;;;;;;;15.80;9.60;;;;;;;2.01;100.00;100827.34;5062173;28;20215;-76
2023/01/27 02:57:00;;;;;;;13.02;9.05;;;;;;;1.97;100.00;100830.91;5058173;28;20206;-75
2023/01/27 02:59:26;;;;;;;15.55;9.20;;;;;;;2.01;100.00;100825.59;5056111;28;20226;-76
2023/01/27 03:01:54;;;;;;;14.65;7.93;;;;;;;1.97;100.00;100829.13;5056766;28;20199;-76
2023/01/27 03:04:21;;;;;;;12.60;8.35;;;;;;;2.01;100.00;100835.31;5057117;28;20652;-75
2023/01/27 03:06:48;;;;;;;14.80;9.35;;;;;;;1.97;100.00;100836.22;5057139;28;20213;-75
2023/01/27 03:09:14;;;;;;;15.68;9.68;;;;;;;2.06;100.00;100829.09;5055579;28;20205;-75
2023/01/27 03:19:56;;;;;;;18.08;10.23;;;;;;;2.09;100.00;100839.72;5056198;28;20374;-75
2023/01/27 03:22:23;;;;;;;15.15;10.38;;;;;;;2.06;100.00;100838.84;5056107;28;20200;-76
2023/01/27 03:24:50;;;;;;;16.45;9.80;;;;;;;2.03;100.00;100842.38;5058065;28;20251;-76
2023/01/27 03:27:16;;;;;;;15.45;10.05;;;;;;;2.06;100.00;100837.06;5059734;28;20202;-75
2023/01/27 03:29:55;;;;;;;17.45;10.55;;;;;;;2.08;100.00;100851.25;5067345;28;20191;-75
2023/01/27 03:32:23;;;;;;;14.38;9.85;;;;;;;2.05;100.00;100839.72;5061052;28;20640;-76
2023/01/27 03:34:50;;;;;;;16.27;10.52;;;;;;;2.04;100.00;100845.94;5056850;28;20208;-74
2023/01/27 03:48:19;;;;;;;16.52;9.82;;;;;;;2.09;100.00;100845.03;5077543;28;20182;-73
2023/01/27 03:50:51;;;;;;;16.83;9.90;;;;;;;2.12;100.00;100851.22;5077844;28;20208;-73
2023/01/27 03:53:18;;;;;;;14.80;10.73;;;;;;;2.14;100.00;100845.00;5078096;28;20241;-73
2023/01/27 03:55:45;;;;;;;16.25;10.90;;;;;;;2.11;100.00;100841.50;5078072;28;20310;-75
2023/01/27 03:58:18;;;;;;;17.95;11.07;;;;;;;2.12;100.00;100845.91;5072178;28;20224;-75
2023/01/27 04:00:46;;;;;;;16.38;10.60;;;;;;;2.14;100.00;100850.31;5061098;28;20210;-75
2023/01/27 04:08:46;;;;;;;17.42;11.32;;;;;;;2.11;100.00;100850.34;5056059;28;20225;-75
2023/01/27 04:14:00;;;;;;;14.77;10.23;;;;;;;2.06;100.00;100852.13;5055451;28;20263;-75
2023/01/27 04:16:29;;;;;;;17.02;10.48;;;;;;;2.08;100.00;100856.56;5057350;28;20203;-74
2023/01/27 04:18:56;;;;;;;20.10;11.80;;;;;;;2.06;100.00;100854.78;5058014;28;20304;-76
2023/01/27 04:21:25;;;;;;;15.48;10.85;;;;;;;2.07;100.00;100849.44;5055132;28;20214;-75
2023/01/27 04:23:52;;;;;;;15.23;10.20;;;;;;;2.02;100.00;100861.00;5056432;28;20218;-76
2023/01/27 04:26:19;;;;;;;17.25;11.93;;;;;;;2.07;100.00;100856.56;5055619;28;20204;-75
2023/01/27 04:28:47;;;;;;;16.05;10.88;;;;;;;2.03;100.00;100857.44;5056147;28;20195;-76
2023/01/27 04:31:14;;;;;;;16.45;10.80;;;;;;;2.02;100.00;100848.59;5060366;28;20205;-75
2023/01/27 04:33:40;;;;;;;15.50;10.57;;;;;;;2.08;100.00;100850.31;5061316;28;20248;-75
2023/01/27 04:36:07;;;;;;;15.75;10.80;;;;;;;2.12;100.00;100860.06;5057874;28;20286;-76
2023/01/27 04:38:35;;;;;;;14.50;9.88;;;;;;;2.08;100.00;100858.28;5058258;28;20223;-75
2023/01/27 04:41:02;;;;;;;15.00;10.32;;;;;;;2.17;100.00;100849.41;5057822;28;20206;-76
2023/01/27 04:43:28;;;;;;;14.82;10.02;;;;;;;2.18;100.00;100848.53;5056685;28;20243;-76
2023/01/27 04:45:55;;;;;;;16.25;10.50;;;;;;;2.11;100.00;100849.47;5057908;28;20214;-75
2023/01/27 04:48:22;;;;;;;16.15;10.90;;;;;;;2.12;100.00;100854.75;5056607;28;20218;-75
2023/01/27 04:50:48;;;;;;;13.10;8.75;;;;;;;2.15;100.00;100851.19;5056472;28;20207;-75
2023/01/27 04:53:15;;;;;;;13.95;8.73;;;;;;;2.16;100.00;100860.94;5056823;28;20229;-75
2023/01/27 04:55:47;;;;;;;14.18;9.18;;;;;;;2.17;100.00;100857.38;5057064;28;20213;-75
2023/01/27 04:58:15;;;;;;;12.50;8.13;;;;;;;2.14;100.00;100862.72;5056546;28;20194;-76
2023/01/27 05:00:42;;;;;;;13.00;8.05;;;;;;;2.14;100.00;100868.91;5056272;28;20207;-74
2023/01/27 05:03:10;;;;;;;11.63;8.15;;;;;;;2.12;100.00;100865.38;5062303;28;20219;-74
2023/01/27 05:05:36;;;;;;;12.57;8.88;;;;;;;2.11;100.00;100868.94;5064442;28;20664;-74
2023/01/27 05:08:03;;;;;;;14.52;9.07;;;;;;;2.20;100.00;100870.69;5059699;28;20242;-75
2023/01/27 05:10:30;;;;;;;13.00;9.30;;;;;;;2.15;100.00;100869.78;5063016;28;20207;-75
2023/01/27 05:12:58;;;;;;;11.10;8.35;;;;;;;2.23;100.00;100871.53;5062092;28;20218;-75
2023/01/27 05:15:25;;;;;;;14.23;8.75;;;;;;;2.24;100.00;100873.31;5059245;28;20544;-76
2023/01/27 05:17:52;;;;;;;10.45;8.00;;;;;;;2.27;100.00;100867.09;5057748;28;20257;-76
2023/01/27 05:20:20;;;;;;;13.57;9.25;;;;;;;2.19;100.00;100874.22;5062565;28;20810;-75
2023/01/27 05:22:46;;;;;;;14.32;9.13;;;;;;;2.20;100.00;100874.22;5068050;28;20646;-76
2023/01/27 05:25:13;;;;;;;13.05;8.68;;;;;;;2.21;100.00;100873.31;5066970;28;20227;-75
2023/01/27 05:27:40;;;;;;;16.92;8.63;;;;;;;2.26;100.00;100884.84;5066224;28;20286;-76
2023/01/27 05:30:10;;;;;;;11.43;8.20;;;;;;;2.24;100.00;100883.97;5063487;28;20199;-74
2023/01/27 05:32:36;;;;;;;10.55;8.40;;;;;;;2.24;100.00;100878.63;5065159;28;20793;-77
2023/01/27 05:35:03;;;;;;;11.65;8.57;;;;;;;2.29;100.00;100882.16;5061087;28;20199;-75
2023/01/27 05:37:30;;;;;;;10.68;7.80;;;;;;;2.30;100.00;100877.72;5060015;28;20589;-74
2023/01/27 05:39:58;;;;;;;10.88;7.97;;;;;;;2.31;100.00;100887.47;5059213;28;20298;-75
2023/01/27 05:42:24;;;;;;;13.05;8.63;;;;;;;2.26;100.00;100889.25;5063057;28;20581;-77
2023/01/27 05:44:51;;;;;;;14.82;8.63;;;;;;;2.21;100.00;100880.41;5059821;28;20711;-75
2023/01/27 05:47:19;;;;;;;13.85;9.55;;;;;;;2.24;100.00;100886.63;5060022;28;20209;-74
2023/01/27 05:49:45;;;;;;;14.27;10.13;;;;;;;2.28;100.00;100884.81;5059846;28;20290;-75
2023/01/27 05:52:12;;;;;;;13.90;9.63;;;;;;;2.32;100.00;100888.34;5060140;28;20203;-74
2023/01/27 05:54:39;;;;;;;13.88;10.23;;;;;;;2.30;100.00;100891.88;5060565;28;20245;-75
2023/01/27 05:57:05;;;;;;;11.90;8.90;;;;;;;2.33;100.00;100883.03;5060288;28;20214;-76
2023/01/27 05:59:32;;;;;;;13.57;9.65;;;;;;;2.29;100.00;100892.78;5060210;28;20219;-75
2023/01/27 06:01:58;;;;;;;13.90;9.88;;;;;;;2.27;100.00;100889.25;5059702;28;20298;-76
2023/01/27 06:04:26;;;;;;;11.20;8.52;;;;;;;2.36;100.00;100898.97;5059595;28;20223;-76
2023/01/27 06:06:53;;;;;;;13.27;9.43;;;;;;;2.42;100.00;100895.38;5058907;28;20203;-74
2023/01/27 06:09:19;;;;;;;13.10;10.20;;;;;;;2.40;100.00;100899.84;5058707;28;20202;-75
2023/01/27 06:11:46;;;;;;;12.27;8.85;;;;;;;2.37;100.00;100905.16;5062824;28;20208;-74
2023/01/27 06:14:13;;;;;;;11.98;8.70;;;;;;;2.38;100.00;100902.50;5063130;28;20226;-75
2023/01/27 06:16:40;;;;;;;12.82;8.50;;;;;;;2.44;100.00;100906.91;5062583;28;20233;-75
2023/01/27 06:19:06;;;;;;;12.00;9.38;;;;;;;2.37;100.00;100906.03;5059975;28;20250;-74
2023/01/27 06:21:34;;;;;;;12.90;9.00;;;;;;;2.44;100.00;100906.91;5060396;28;20195;-75
2023/01/27 06:24:01;;;;;;;20.45;13.63;;;;;;;2.41;100.00;100914.91;5062950;28;20286;-73
2023/01/27 06:26:27;;;;;;;13.23;9.27;;;;;;;2.36;100.00;100908.72;5060779;28;20579;-75
2023/01/27 06:28:56;;;;;;;12.45;8.65;;;;;;;2.46;100.00;100910.44;5063847;28;20213;-76
2023/01/27 06:31:23;;;;;;;15.20;10.88;;;;;;;2.45;100.00;100916.66;5062390;28;20208;-73
2023/01/27 06:33:51;;;;;;;13.48;9.38;;;;;;;2.34;100.00;100919.34;5060405;28;20227;-75
2023/01/27 06:36:19;;;;;;;14.48;10.23;;;;;;;2.35;100.00;100920.22;5060677;28;20228;-74
2023/01/27 06:38:48;;;;;;;11.20;8.68;;;;;;;2.35;100.00;100922.88;5059577;28;20205;-74
2023/01/27 06:41:15;;;;;;;14.07;10.90;;;;;;;2.38;100.00;100918.47;5059827;28;20203;-72
2023/01/27 06:43:41;;;;;;;14.30;10.18;;;;;;;2.38;100.00;100918.47;5060592;28;20237;-75
2023/01/27 06:46:08;;;;;;;16.02;10.98;;;;;;;2.46;100.00;100926.41;5060278;28;20208;-74
2023/01/27 06:48:36;;;;;;;12.18;9.73;;;;;;;2.45;100.00;100919.31;5058958;28;20217;-72
2023/01/27 06:51:03;;;;;;;11.25;8.85;;;;;;;2.40;100.00;100934.41;5059591;28;20568;-75
2023/01/27 06:53:30;;;;;;;14.13;10.13;;;;;;;2.48;100.00;100936.13;5061615;28;20269;-73
2023/01/27 06:55:59;;;;;;;14.85;10.13;;;;;;;2.41;100.00;100929.06;5062387;28;20203;-74
2023/01/27 06:58:26;;;;;;;15.45;10.23;;;;;;;2.41;100.00;100926.41;5061393;28;20261;-73
2023/01/27 07:00:53;;;;;;;18.40;12.63;;;;;;;2.41;100.00;100934.38;5063334;28;20288;-75
2023/01/27 07:03:20;;;;;;;17.52;11.40;;;;;;;2.48;100.00;100932.59;5070325;28;20226;-74
2023/01/27 07:05:46;;;;;;;14.18;11.05;;;;;;;2.50;100.00;100938.78;5076134;28;20285;-74
2023/01/27 07:08:13;;;;;;;15.98;11.40;;;;;;;2.60;100.00;100937.88;5075178;28;20213;-75
2023/01/27 07:10:39;;;;;;;15.32;11.27;;;;;;;2.60;100.00;100931.66;5066767;28;20299;-74
2023/01/27 07:13:09;;;;;;;16.40;11.50;;;;;;;2.57;100.00;100945.84;5063171;28;20594;-73
2023/01/27 07:15:36;;;;;;;13.82;10.98;;;;;;;2.54;100.00;100951.19;5061773;28;20203;-72
2023/01/27 07:18:03;;;;;;;18.33;12.73;;;;;;;2.50;100.00;100946.78;5062299;28;20234;-74
2023/01/27 07:20:31;;;;;;;18.40;11.40;;;;;;;2.59;100.00;100949.38;5062395;28;20239;-73
2023/01/27 07:22:58;;;;;;;16.15;10.80;;;;;;;2.58;100.00;100952.97;5063815;28;20403;-74
2023/01/27 07:25:25;;;;;;;15.05;10.70;;;;;;;2.56;100.00;100945.88;5063496;28;20212;-73
2023/01/27 07:27:52;;;;;;;17.42;11.60;;;;;;;2.54;100.00;100945.00;5062972;28;20633;-74
2023/01/27 07:30:20;;;;;;;18.23;11.20;;;;;;;2.57;100.00;100945.84;5063689;28;20210;-74
2023/01/27 07:32:47;;;;;;;17.90;11.05;;;;;;;2.65;100.00;100949.38;5064103;28;20259;-72
2023/01/27 07:35:14;;;;;;;16.70;11.38;;;;;;;2.56;100.00;100960.06;5066263;28;20213;-75
2023/01/27 07:37:40;;;;;;;14.77;11.70;;;;;;;2.65;100.00;100954.69;5064095;28;20733;-72
2023/01/27 07:40:08;;;;;;;17.95;12.35;;;;;;;2.68;100.00;100967.97;5061276;28;20231;-73
2023/01/27 07:42:35;;;;;;;15.85;11.32;;;;;;;2.68;100.00;100975.06;5059558;28;20668;-77
2023/01/27 07:45:02;;;;;;;17.73;11.50;;;;;;;2.69;100.00;100974.16;5062272;28;20288;-74
2023/01/27 07:47:30;;;;;;;16.70;11.07;;;;;;;2.71;100.00;100965.31;5059860;28;20199;-74
2023/01/27 07:49:56;;;;;;;14.80;10.95;;;;;;;2.79;100.00;100969.72;5059730;28;20618;-74
2023/01/27 07:52:23;;;;;;;16.45;11.32;;;;;;;2.77;100.00;100969.72;5058742;28;20203;-74
2023/01/27 07:54:50;;;;;;;15.98;10.63;;;;;;;2.76;100.00;100964.38;5056158;28;20205;-73
2023/01/27 07:57:16;;;;;;;23.38;15.07;;;;;;;2.78;100.00;100967.94;5057155;28;20258;-75
2023/01/27 07:59:43;;;;;;;16.77;12.40;;;;;;;2.80;100.00;100975.00;5056342;28;20269;-75
2023/01/27 08:02:10;;;;;;;16.45;11.25;;;;;;;2.87;100.00;100975.88;5056145;28;20278;-74
2023/01/27 08:04:38;;;;;;;15.43;11.05;;;;;;;2.87;100.00;100973.22;5055859;28;20229;-74
2023/01/27 08:07:06;;;;;;;14.50;11.18;;;;;;;2.90;100.00;100978.53;5055621;28;20206;-74
2023/01/27 08:09:32;;;;;;;14.82;9.75;;;;;;;2.99;100.00;100982.94;5054459;28;20212;-73
2023/01/27 08:11:59;;;;;;;14.48;10.60;;;;;;;2.97;100.00;100980.28;5054942;28;20625;-74
2023/01/27 08:14:25;;;;;;;14.18;9.60;;;;;;;3.01;100.00;100982.03;5054654;28;20221;-75
2023/01/27 08:16:52;;;;;;;13.30;9.70;;;;;;;3.05;100.00;100975.81;5054586;28;20213;-77
2023/01/27 08:19:18;;;;;;;12.40;9.13;;;;;;;3.19;100.00;100980.13;5053361;28;20195;-75
2023/01/27 08:21:46;;;;;;;12.98;9.30;;;;;;;3.19;100.00;100988.13;5061106;28;20203;-73
2023/01/27 08:24:13;;;;;;;13.98;9.50;;;;;;;3.15;100.00;100981.06;5053336;28;20223;-73
2023/01/27 08:26:40;;;;;;;13.82;9.88;;;;;;;3.18;100.00;100979.25;5057947;28;20202;-74
2023/01/27 08:29:07;;;;;;;13.00;10.27;;;;;;;3.25;100.00;100982.78;5059382;28;20207;-74
2023/01/27 08:31:33;;;;;;;12.65;9.15;;;;;;;3.32;100.00;100987.16;5061829;28;20260;-74
2023/01/27 08:34:00;;;;;;;12.20;9.25;;;;;;;3.34;100.00;100986.25;5058620;28;20219;-74
2023/01/27 08:36:27;;;;;;;13.10;8.65;;;;;;;3.41;100.00;100991.56;5058698;28;20235;-74
2023/01/27 08:38:56;;;;;;;14.00;10.00;;;;;;;3.37;100.00;100996.03;5056967;28;20285;-74
2023/01/27 08:41:24;;;;;;;12.48;9.68;;;;;;;3.50;100.00;101000.34;5054893;28;20255;-74
2023/01/27 08:43:51;;;;;;;11.48;8.27;;;;;;;3.57;100.00;101000.31;5054457;28;20219;-75
2023/01/27 08:46:18;;;;;;;12.30;9.10;;;;;;;3.54;100.00;101011.88;5055596;28;20212;-73
2023/01/27 08:48:45;;;;;;;12.80;9.20;;;;;;;3.52;100.00;101011.88;5054149;28;20299;-75
2023/01/27 08:51:14;;;;;;;12.35;9.30;;;;;;;3.47;100.00;101011.03;5055891;28;20207;-73
2023/01/27 08:53:41;;;;;;;13.05;9.05;;;;;;;3.44;100.00;101016.38;5056811;28;20224;-73
2023/01/27 08:56:13;;;;;;;13.23;9.35;;;;;;;3.45;100.00;101020.81;5057064;28;20224;-74
2023/01/27 08:58:41;;;;;;;13.77;9.45;;;;;;;3.43;100.00;101019.06;5056294;28;20211;-73
2023/01/27 09:01:08;;;;;;;11.70;8.70;;;;;;;3.40;100.00;101019.97;5055443;28;20230;-75
2023/01/27 09:03:36;;;;;;;11.52;8.50;;;;;;;3.32;100.00;101029.75;5055357;28;20310;-73
2023/01/27 09:06:03;;;;;;;10.07;7.75;;;;;;;3.33;100.00;101040.41;5053928;28;20262;-74
2023/01/27 09:08:30;;;;;;;11.68;8.70;;;;;;;3.28;100.00;101030.69;5055101;28;20202;-76
2023/01/27 09:10:57;;;;;;;13.45;9.65;;;;;;;3.27;100.00;101034.22;5054951;28;20196;-75
2023/01/27 09:13:27;;;;;;;13.68;9.55;;;;;;;3.39;100.00;101034.16;5055667;28;20743;-76
2023/01/27 09:15:54;;;;;;;10.80;8.57;;;;;;;3.48;100.00;101051.84;5055912;28;20207;-74
2023/01/27 09:18:21;;;;;;;12.98;9.85;;;;;;;3.50;100.00;101048.28;5053553;28;20691;-75
2023/01/27 09:20:47;;;;;;;12.88;9.55;;;;;;;3.52;100.00;101045.63;5056819;28;20252;-74
2023/01/27 09:23:14;;;;;;;13.27;9.85;;;;;;;3.48;100.00;101049.19;5057384;28;20253;-75
2023/01/27 09:25:41;;;;;;;12.27;9.02;;;;;;;3.53;100.00;101048.28;5055064;28;20225;-74
2023/01/27 09:28:15;;;;;;;10.30;8.10;;;;;;;3.55;100.00;101042.97;5054683;28;20200;-73
2023/01/27 09:30:45;;;;;;;12.20;9.20;;;;;;;3.58;100.00;101050.91;5055029;28;20222;-75
2023/01/27 09:33:12;;;;;;;11.05;8.75;;;;;;;3.62;100.00;101046.44;5055014;28;20243;-75
2023/01/27 09:35:44;;;;;;;13.25;9.60;;;;;;;3.59;100.00;101044.69;5054579;28;20215;-75
2023/01/27 09:38:13;;;;;;;12.65;9.35;;;;;;;3.49;100.00;101045.66;5053644;28;20211;-75
2023/01/27 09:40:57;;;;;;;11.55;8.45;;;;;;;3.47;100.00;101045.66;5055763;28;20230;-74
2023/01/27 09:43:58;;;;;;;11.07;8.63;;;;;;;3.52;100.00;101042.97;5057372;28;20239;-74
2023/01/27 09:46:39;;;;;;;12.43;8.38;;;;;;;3.53;100.00;101058.94;5046056;28;20692;-76
2023/01/27 09:49:20;;;;;;;13.63;9.10;;;;;;;3.59;100.00;101044.69;5053557;28;20638;-74
2023/01/27 09:51:59;;;;;;;11.05;8.55;;;;;;;3.60;100.00;101050.94;5062632;28;20274;-75
2023/01/27 09:54:43;;;;;;;12.15;7.97;;;;;;;3.61;100.00;101044.69;5055652;28;20224;-74
2023/01/27 09:57:18;;;;;;;12.25;8.68;;;;;;;3.61;100.00;101042.03;5059550;28;20368;-75
2023/01/27 09:59:56;;;;;;;12.00;8.38;;;;;;;3.53;100.00;101042.97;5058264;28;20749;-75
2023/01/27 10:02:45;;;;;;;13.27;9.57;;;;;;;3.54;100.00;101035.84;5059913;28;20195;-74
2023/01/27 10:05:32;;;;;;;10.88;8.48;;;;;;;3.61;100.00;101045.56;5067741;28;20264;-73
2023/01/27 10:08:17;;;;;;;13.88;8.90;;;;;;;3.64;100.00;101040.25;5065832;28;20198;-74
2023/01/27 10:10:56;;;;;;;12.00;8.45;;;;;;;3.60;100.00;101042.94;5076910;28;20456;-73
2023/01/27 10:13:31;;;;;;;12.40;8.63;;;;;;;3.67;100.00;101044.66;5068929;28;20230;-75
2023/01/27 10:16:12;;;;;;;12.30;9.05;;;;;;;3.64;100.00;101039.31;5062535;28;20198;-74
2023/01/27 10:18:59;;;;;;;11.48;9.32;;;;;;;3.72;100.00;101037.50;5058348;28;20207;-74
2023/01/27 10:21:34;;;;;;;12.18;9.10;;;;;;;3.73;100.00;101039.25;5059965;28;20582;-75
2023/01/27 10:24:10;;;;;;;12.43;8.23;;;;;;;3.77;100.00;101043.69;5059043;28;20743;-74
2023/01/27 10:26:41;;;;;;;11.50;7.82;;;;;;;3.72;100.00;101037.50;5059412;28;20290;-76
2023/01/27 10:29:10;;;;;;;11.27;7.57;;;;;;;3.74;100.00;101033.06;5057494;28;20270;-76
2023/01/27 10:31:38;;;;;;;11.65;8.45;;;;;;;3.65;100.00;101030.47;5058903;28;20587;-75
2023/01/27 10:34:16;;;;;;;12.00;8.10;;;;;;;3.65;100.00;101035.78;5058253;28;20259;-75
2023/01/27 10:36:51;;;;;;;10.85;7.60;;;;;;;3.57;100.00;101032.28;5057649;28;20198;-74
2023/01/27 10:39:28;;;;;;;11.00;8.43;;;;;;;3.68;100.00;101035.75;5056708;28;20192;-74
2023/01/27 10:42:04;;;;;;;12.40;8.30;;;;;;;3.74;100.00;101033.94;5057311;28;20232;-73
2023/01/27 10:44:47;;;;;;;10.32;8.15;;;;;;;3.87;100.00;101032.06;5057038;28;20254;-73
2023/01/27 10:47:25;;;;;;;10.85;8.07;;;;;;;3.94;100.00;101033.78;5056619;28;20290;-75
2023/01/27 10:49:57;;;;;;;10.43;6.75;;;;;;;4.00;100.00;101042.63;5056252;28;20188;-73
2023/01/27 10:52:30;;;;;;;10.05;7.90;;;;;;;4.03;100.00;101047.94;5056664;28;20189;-75
2023/01/27 10:55:02;;;;;;;10.45;7.20;;;;;;;4.07;100.00;101044.34;5057012;28;20275;-74
2023/01/27 10:57:34;;;;;;;10.90;7.38;;;;;;;3.97;100.00;101044.41;5056319;28;20697;-75
2023/01/27 11:00:05;;;;;;;11.65;8.48;;;;;;;4.00;100.00;101039.97;5057059;28;20188;-76
2023/01/27 11:02:40;;;;;;;7.15;6.05;;;;;;;4.00;100.00;101037.28;5058259;28;20197;-74
2023/01/27 11:05:17;;;;;;;9.38;7.72;;;;;;;3.99;100.00;101043.53;5059687;28;20202;-75
2023/01/27 11:07:50;;;;;;;9.05;6.90;;;;;;;4.06;100.00;101034.59;5056380;28;20210;-75
2023/01/27 11:10:19;;;;;;;8.00;6.25;;;;;;;4.13;100.00;101039.84;5057940;28;20275;-74
2023/01/27 11:12:49;;;;;;;8.73;6.32;;;;;;;4.28;100.00;101029.94;5057606;28;20231;-72
2023/01/27 11:15:30;;;;;;;6.18;5.50;;;;;;;4.25;100.00;101035.28;5062608;28;20210;-74
2023/01/27 11:18:03;;;;;;;6.85;5.43;;;;;;;4.17;100.00;101036.25;5065905;28;20205;-74
2023/01/27 11:20:34;;;;;;;8.93;6.35;;;;;;;4.20;100.00;101024.66;5062370;28;20223;-74
2023/01/27 11:23:10;;;;;;;8.73;5.90;;;;;;;4.21;100.00;101026.47;5060513;28;20692;-74
2023/01/27 11:25:46;;;;;;;7.90;6.15;;;;;;;4.35;100.00;101019.19;5058211;28;20210;-74
2023/01/27 11:28:23;;;;;;;8.20;6.03;;;;;;;4.48;100.00;101019.09;5057671;28;20202;-74
2023/01/27 11:31:03;;;;;;;8.10;6.28;;;;;;;4.59;100.00;101017.19;5058472;28;20204;-74
2023/01/27 11:33:41;;;;;;;8.30;6.50;;;;;;;4.62;100.00;101018.94;5058065;28;20794;-74
2023/01/27 11:36:10;;;;;;;13.07;9.15;;;;;;;4.76;100.00;101025.00;5062556;28;20272;-75
2023/01/27 11:38:36;;;;;;;9.55;6.35;;;;;;;4.77;100.00;101014.31;5062690;28;20207;-74
2023/01/27 11:41:04;;;;;;;7.75;6.07;;;;;;;4.71;100.00;101017.03;5060799;28;20251;-73
2023/01/27 11:43:33;;;;;;;7.30;4.85;;;;;;;4.78;100.00;101009.84;5059387;28;20599;-75
2023/01/27 11:46:02;;;;;;;6.65;4.50;;;;;;;4.77;100.00;101014.31;5059247;28;20657;-74
2023/01/27 11:48:39;;;;;;;5.28;4.50;;;;;;;4.68;100.00;101010.84;5058130;28;20200;-73
2023/01/27 11:51:14;;;;;;;4.93;4.05;;;;;;;4.71;100.00;101005.50;5064334;28;20685;-74
2023/01/27 11:53:41;;;;;;;5.65;4.90;;;;;;;4.68;100.00;101016.19;5063916;28;20529;-74
2023/01/27 11:56:15;;;;;;;7.18;5.00;;;;;;;4.63;100.00;101018.91;5060746;28;20243;-73
2023/01/27 11:58:49;;;;;;;4.80;4.20;;;;;;;4.50;100.00;101012.84;5058796;28;20563;-75